PWSweather.com
Personal Weather Stations
Station Observations
AS787
Cloppers Mill East, Germantown, MD 20874-2154

Cloppers Mill EastGermantown, MD 20874-2154

Lat: 39.1522, Lon: -77.2679

Elevation: 318

Station Type: 1-Wire

http://www.cloppermillweather.org/

High Low Average
Temperature 72.0°F22.2°F 47.5°F8.6°F 59.5°F15.3°F
Dew Point 67.4°F19.7°F 39.1°F3.9°F 49.2°F9.6°F
Winds 3.6 mph SSE5.8 mph SSE Calm Calm 0.8 mph 1.3 mph
Wind Gusts 8.0 mph12.9 mph -- 3.1 mph5.0 mph
Humidity 94% 40% 70%
Pressure 30.24 in1024.00 in 29.88 in1011.90 in -
Precipitation 0.02 in0.50 in - -
Hour Temp Dew Point Humidity Winds Wind Gusts Pressure Precip Precip Rate Daily Precip Total
12:06 AM 72.0°F22.2°C 67.4°F19.7°C 85% 0.4 mph SE0.6 kmh SE 2.0 mph3.2 kmh 29.88 in1011.9 mb 0.00 in0.0 mm 0.00 in0.0 mm 0.00 in0.0 mm
12:36 AM 70.6°F21.4°C 65.5°F18.6°C 84% 1.9 mph SE3.1 kmh SE 7.0 mph11.3 kmh 29.89 in1012.2 mb 0.00 in0.0 mm 0.00 in0.0 mm 0.00 in0.0 mm
01:06 AM 68.6°F20.3°C 62.7°F17.1°C 81% 0.5 mph S0.8 kmh S 5.0 mph8.0 kmh 29.91 in1012.9 mb 0.00 in0.0 mm 0.00 in0.0 mm 0.00 in0.0 mm
01:36 AM 67.9°F19.9°C 61.7°F16.5°C 80% 0.1 mph S0.2 kmh S 5.0 mph8.0 kmh 29.92 in1013.2 mb 0.00 in0.0 mm 0.00 in0.0 mm 0.00 in0.0 mm
02:06 AM 67.4°F19.7°C 58.8°F14.9°C 74% 2.7 mph SE4.3 kmh SE 8.0 mph12.9 kmh 29.92 in1013.2 mb 0.00 in0.0 mm 0.00 in0.0 mm 0.00 in0.0 mm
02:36 AM 66.4°F19.1°C 57.0°F13.9°C 71% 0.9 mph SSE1.4 kmh SSE 6.0 mph9.7 kmh 29.93 in1013.5 mb 0.00 in0.0 mm 0.00 in0.0 mm 0.00 in0.0 mm
03:06 AM 63.4°F17.4°C 58.6°F14.8°C 84% Calm Calm -- 29.93 in1013.5 mb 0.00 in0.0 mm 0.00 in0.0 mm 0.00 in0.0 mm
03:36 AM 62.0°F16.7°C 58.8°F14.9°C 89% Calm Calm -- 29.94 in1013.9 mb 0.01 in0.3 mm 0.02 in0.5 mm 0.01 in0.3 mm
04:06 AM 61.3°F16.3°C 59.0°F15.0°C 92% Calm Calm -- 29.94 in1013.9 mb 0.00 in0.0 mm 0.00 in0.0 mm 0.01 in0.3 mm
04:36 AM 60.8°F16.0°C 59.1°F15.1°C 94% Calm Calm -- 29.95 in1014.2 mb 0.00 in0.0 mm 0.00 in0.0 mm 0.01 in0.3 mm
05:06 AM 60.2°F15.7°C 58.5°F14.7°C 94% Calm Calm -- 29.95 in1014.2 mb 0.00 in0.0 mm 0.00 in0.0 mm 0.01 in0.3 mm
05:36 AM 59.6°F15.3°C 57.9°F14.4°C 94% Calm Calm -- 29.97 in1014.9 mb 0.00 in0.0 mm 0.00 in0.0 mm 0.01 in0.3 mm
06:06 AM 59.0°F15.0°C 57.3°F14.1°C 94% Calm Calm -- 29.96 in1014.6 mb 0.00 in0.0 mm 0.00 in0.0 mm 0.01 in0.3 mm
06:36 AM 58.4°F14.7°C 55.2°F12.9°C 89% Calm Calm -- 29.99 in1015.6 mb 0.01 in0.3 mm 0.02 in0.5 mm 0.02 in0.5 mm
07:06 AM 57.9°F14.4°C 54.8°F12.7°C 89% Calm Calm -- 29.98 in1015.2 mb 0.00 in0.0 mm 0.00 in0.0 mm 0.02 in0.5 mm
07:36 AM 58.2°F14.6°C 54.0°F12.2°C 86% 0.0 mph ESE0.0 kmh ESE 1.0 mph1.6 kmh 29.99 in1015.6 mb 0.00 in0.0 mm 0.00 in0.0 mm 0.02 in0.5 mm
08:06 AM 59.0°F15.0°C 52.9°F11.6°C 80% 0.1 mph NNW0.2 kmh NNW 3.0 mph4.8 kmh 30.01 in1016.3 mb 0.00 in0.0 mm 0.00 in0.0 mm 0.02 in0.5 mm
08:36 AM 59.5°F15.3°C 53.6°F12.0°C 81% Calm Calm -- 30.03 in1016.9 mb 0.00 in0.0 mm 0.00 in0.0 mm 0.02 in0.5 mm
09:06 AM 59.8°F15.4°C 51.1°F10.6°C 73% 1.0 mph SE1.6 kmh SE 5.0 mph8.0 kmh 30.06 in1017.9 mb 0.00 in0.0 mm 0.00 in0.0 mm 0.02 in0.5 mm
09:36 AM 59.4°F15.2°C 50.4°F10.2°C 72% 1.2 mph NNE1.9 kmh NNE 4.0 mph6.4 kmh 30.08 in1018.6 mb 0.00 in0.0 mm 0.00 in0.0 mm 0.02 in0.5 mm
10:06 AM 58.7°F14.8°C 48.5°F9.2°C 69% 0.9 mph 1.4 kmh 6.0 mph9.7 kmh 30.07 in1018.3 mb 0.00 in0.0 mm 0.00 in0.0 mm 0.02 in0.5 mm
10:36 AM 58.6°F14.8°C 47.4°F8.6°C 66% 0.7 mph NE1.1 kmh NE 5.0 mph8.0 kmh 30.07 in1018.3 mb 0.00 in0.0 mm 0.00 in0.0 mm 0.02 in0.5 mm
11:06 AM 58.6°F14.8°C 47.2°F8.4°C 65% 1.9 mph SE3.1 kmh SE 8.0 mph12.9 kmh 30.08 in1018.6 mb 0.00 in0.0 mm 0.00 in0.0 mm 0.02 in0.5 mm
11:36 AM 58.0°F14.4°C 46.9°F8.3°C 66% 1.7 mph NNW2.7 kmh NNW 6.0 mph9.7 kmh 30.09 in1019.0 mb 0.00 in0.0 mm 0.00 in0.0 mm 0.02 in0.5 mm
12:06 PM 57.9°F14.4°C 47.1°F8.4°C 67% 1.3 mph 2.1 kmh 7.0 mph11.3 kmh 30.09 in1019.0 mb 0.00 in0.0 mm 0.00 in0.0 mm 0.02 in0.5 mm
12:36 PM 57.8°F14.3°C 47.0°F8.3°C 67% 0.1 mph NNE0.2 kmh NNE 7.0 mph11.3 kmh 30.09 in1019.0 mb 0.00 in0.0 mm 0.00 in0.0 mm 0.02 in0.5 mm
01:06 PM 61.2°F16.2°C 46.5°F8.1°C 58% 3.6 mph SSE5.8 kmh SSE 8.0 mph12.9 kmh 30.09 in1019.0 mb 0.00 in0.0 mm 0.00 in0.0 mm 0.02 in0.5 mm
01:36 PM 62.3°F16.8°C 45.4°F7.4°C 54% 2.5 mph NNW4.0 kmh NNW 7.0 mph11.3 kmh 30.09 in1019.0 mb 0.00 in0.0 mm 0.00 in0.0 mm 0.02 in0.5 mm
02:06 PM 60.7°F15.9°C 44.6°F7.0°C 55% 1.3 mph SE2.1 kmh SE 4.0 mph6.4 kmh 30.09 in1019.0 mb 0.00 in0.0 mm 0.00 in0.0 mm 0.02 in0.5 mm
02:36 PM 63.2°F17.3°C 43.2°F6.2°C 48% 1.7 mph E2.7 kmh E 6.0 mph9.7 kmh 30.09 in1019.0 mb 0.00 in0.0 mm 0.00 in0.0 mm 0.02 in0.5 mm
03:06 PM 64.0°F17.8°C 42.9°F6.1°C 46% 2.8 mph 4.5 kmh 5.0 mph8.0 kmh 30.09 in1019.0 mb 0.00 in0.0 mm 0.00 in0.0 mm 0.02 in0.5 mm
03:36 PM 65.0°F18.3°C 41.7°F5.4°C 42% 1.5 mph SSE2.4 kmh SSE 7.0 mph11.3 kmh 30.09 in1019.0 mb 0.00 in0.0 mm 0.00 in0.0 mm 0.02 in0.5 mm
04:06 PM 64.9°F18.3°C 40.5°F4.7°C 40% 1.9 mph NNW3.1 kmh NNW 7.0 mph11.3 kmh 30.10 in1019.3 mb 0.00 in0.0 mm 0.00 in0.0 mm 0.02 in0.5 mm
04:36 PM 63.8°F17.7°C 39.5°F4.2°C 40% 2.1 mph 3.4 kmh 6.0 mph9.7 kmh 30.11 in1019.6 mb 0.00 in0.0 mm 0.00 in0.0 mm 0.02 in0.5 mm
05:06 PM 62.6°F17.0°C 39.6°F4.2°C 42% 1.9 mph NNE3.1 kmh NNE 5.0 mph8.0 kmh 30.11 in1019.6 mb 0.00 in0.0 mm 0.00 in0.0 mm 0.02 in0.5 mm
05:36 PM 62.4°F16.9°C 39.7°F4.3°C 43% 2.0 mph 3.2 kmh 4.0 mph6.4 kmh 30.12 in1020.0 mb 0.00 in0.0 mm 0.00 in0.0 mm 0.02 in0.5 mm
06:06 PM 60.0°F15.6°C 40.1°F4.5°C 47% 0.5 mph NNE0.8 kmh NNE 2.0 mph3.2 kmh 30.13 in1020.3 mb 0.00 in0.0 mm 0.00 in0.0 mm 0.02 in0.5 mm
06:36 PM 58.0°F14.4°C 39.1°F3.9°C 49% Calm Calm 4.0 mph6.4 kmh 30.14 in1020.7 mb 0.00 in0.0 mm 0.00 in0.0 mm 0.02 in0.5 mm
07:06 PM 55.9°F13.3°C 40.7°F4.8°C 56% Calm Calm -- 30.14 in1020.7 mb 0.00 in0.0 mm 0.00 in0.0 mm 0.02 in0.5 mm
07:36 PM 53.0°F11.7°C 41.2°F5.1°C 64% Calm Calm -- 30.16 in1021.3 mb 0.00 in0.0 mm 0.00 in0.0 mm 0.02 in0.5 mm
08:06 PM 50.8°F10.4°C 42.1°F5.6°C 72% Calm Calm -- 30.17 in1021.7 mb 0.00 in0.0 mm 0.00 in0.0 mm 0.02 in0.5 mm
08:36 PM 51.8°F11.0°C 41.1°F5.1°C 66% 0.0 mph E0.0 kmh E 1.0 mph1.6 kmh 30.18 in1022.0 mb 0.00 in0.0 mm 0.00 in0.0 mm 0.02 in0.5 mm
09:06 PM 51.4°F10.8°C 41.9°F5.5°C 70% Calm Calm -- 30.19 in1022.4 mb 0.00 in0.0 mm 0.00 in0.0 mm 0.02 in0.5 mm
09:36 PM 50.1°F10.1°C 43.7°F6.5°C 79% Calm Calm -- 30.21 in1023.0 mb 0.00 in0.0 mm 0.00 in0.0 mm 0.02 in0.5 mm
10:06 PM 48.2°F9.0°C 43.0°F6.1°C 82% Calm Calm -- 30.22 in1023.4 mb 0.00 in0.0 mm 0.00 in0.0 mm 0.02 in0.5 mm
10:36 PM 48.0°F8.9°C 41.7°F5.4°C 79% Calm Calm -- 30.23 in1023.7 mb 0.00 in0.0 mm 0.00 in0.0 mm 0.02 in0.5 mm
11:06 PM 48.4°F9.1°C 41.8°F5.4°C 78% Calm Calm -- 30.24 in1024.0 mb 0.00 in0.0 mm 0.00 in0.0 mm 0.02 in0.5 mm
11:36 PM 47.5°F8.6°C 42.6°F5.9°C 83% Calm Calm -- 30.24 in1024.0 mb 0.00 in0.0 mm 0.00 in0.0 mm 0.02 in0.5 mm